Time;durP1;ratioP1;P1;durP2;ratioP2;P2;SDS_P1;SDS_P2;PMS_P1;PMS_P2;Temp;Humidity;BMP_temperature;BMP_pressure;BME280_temperature;BME280_humidity;BME280_pressure;Samples;Min_cycle;Max_cycle;Signal;HPM_P1;HPM_P2
2023/06/05 04:10:11;;;;;;;6.55;3.97;;;;;;;19.84;59.68;100833.84;5606734;31;75997;-57
2023/06/05 04:13:13;;;;;;;5.32;3.50;;;;;;;19.84;59.68;100833.84;5583645;32;33335;-58
2023/06/05 04:16:16;;;;;;;4.70;3.33;;;;;;;19.44;61.24;100834.22;5589006;31;33663;-58
2023/06/05 04:19:18;;;;;;;6.32;3.70;;;;;;;19.40;65.15;100839.53;5583935;31;34218;-58
2023/06/05 04:22:21;;;;;;;6.72;3.78;;;;;;;19.40;59.63;100841.41;5591009;31;34393;-57
2023/06/05 04:25:28;;;;;;;4.53;3.58;;;;;;;19.47;59.54;100839.78;5590985;31;33444;-58
2023/06/05 04:28:31;;;;;;;5.55;3.30;;;;;;;19.55;70.14;100843.59;5601001;31;33056;-58
2023/06/05 04:31:34;;;;;;;5.85;3.15;;;;;;;19.66;67.77;100833.94;5603301;31;34296;-58
2023/06/05 04:34:36;;;;;;;6.50;3.75;;;;;;;19.71;61.58;100832.97;5603513;31;33558;-58
2023/06/05 04:37:39;;;;;;;5.50;3.65;;;;;;;19.80;58.69;100833.69;5602869;31;34037;-58
2023/06/05 04:40:42;;;;;;;7.30;3.47;;;;;;;19.85;60.30;100832.69;5598837;31;33749;-58
2023/06/05 04:43:44;;;;;;;6.75;3.83;;;;;;;19.91;63.95;100843.03;5592166;31;33554;-58
2023/06/05 04:46:46;;;;;;;8.02;4.10;;;;;;;19.90;59.01;100838.75;5593620;31;33607;-58
2023/06/05 04:49:51;;;;;;;5.57;3.80;;;;;;;19.89;59.66;100844.50;5603997;31;33549;-58
2023/06/05 04:52:54;;;;;;;6.68;3.80;;;;;;;19.98;58.21;100841.72;5601992;31;33378;-57
2023/06/05 04:56:00;;;;;;;8.45;3.70;;;;;;;19.92;62.67;100838.41;5603081;31;34329;-58
2023/06/05 04:59:03;;;;;;;8.32;3.55;;;;;;;20.00;65.48;100840.28;5612791;31;33177;-58
2023/06/05 05:02:06;;;;;;;8.55;3.75;;;;;;;20.01;68.46;100843.78;5602727;31;33421;-58
2023/06/05 05:05:13;;;;;;;5.97;3.60;;;;;;;20.02;59.34;100839.94;5592559;31;33710;-58
2023/06/05 05:08:16;;;;;;;9.52;4.00;;;;;;;20.00;61.92;100840.28;5602468;31;33250;-58
2023/06/05 05:11:18;;;;;;;12.37;4.50;;;;;;;20.08;59.02;100838.59;5603162;31;33349;-58
2023/06/05 05:14:21;;;;;;;6.68;3.72;;;;;;;20.13;59.05;100835.66;5612484;31;33110;-58
2023/06/05 05:17:24;;;;;;;6.45;3.60;;;;;;;20.16;59.35;100841.25;5602799;31;33544;-58
2023/06/05 05:20:26;;;;;;;6.10;3.97;;;;;;;20.19;57.75;100828.88;5603954;31;33337;-58
2023/06/05 05:23:29;;;;;;;7.00;3.90;;;;;;;20.24;57.89;100841.50;5589749;31;33737;-58
2023/06/05 05:26:31;;;;;;;7.35;3.92;;;;;;;20.21;57.29;100834.81;5590683;31;33653;-58
2023/06/05 05:29:33;;;;;;;10.48;3.90;;;;;;;20.30;57.46;100840.19;5590473;31;33614;-58
2023/06/05 05:32:36;;;;;;;9.32;3.90;;;;;;;20.32;58.22;100830.53;5600229;31;34311;-58
2023/06/05 05:35:39;;;;;;;8.77;4.22;;;;;;;20.35;57.61;100837.22;5592014;31;33683;-58
2023/06/05 05:38:42;;;;;;;7.85;4.22;;;;;;;20.31;57.72;100839.03;5592064;31;33495;-58
2023/06/05 05:41:44;;;;;;;5.82;3.85;;;;;;;20.38;57.60;100842.00;5589795;31;33735;-58
2023/06/05 05:44:47;;;;;;;9.32;4.20;;;;;;;20.40;56.06;100843.28;5585511;31;33571;-58
2023/06/05 05:47:49;;;;;;;7.53;4.15;;;;;;;20.46;56.69;100840.31;5599397;31;33568;-58
2023/06/05 05:50:52;;;;;;;11.23;4.35;;;;;;;20.49;56.16;100847.81;5609008;31;33669;-57
2023/06/05 05:53:54;;;;;;;10.35;4.93;;;;;;;20.48;55.68;100847.03;5602378;31;33578;-58
2023/06/05 05:56:57;;;;;;;6.53;3.72;;;;;;;20.51;54.43;100851.06;5589272;31;33638;-58
2023/06/05 06:00:00;;;;;;;9.80;4.07;;;;;;;20.55;58.62;100841.88;5589381;31;33616;-58
2023/06/05 06:03:13;;;;;;;5.22;3.90;;;;;;;20.56;56.45;100846.19;5589413;31;34192;-58
2023/06/05 06:06:16;;;;;;;8.63;3.95;;;;;;;20.55;56.91;100841.06;5588983;31;33637;-58
2023/06/05 06:09:18;;;;;;;8.52;4.57;;;;;;;20.61;59.49;100845.19;5586456;31;34148;-57
2023/06/05 06:12:22;;;;;;;8.48;3.92;;;;;;;20.60;56.89;100843.59;5592478;31;32117;-56
2023/06/05 06:15:27;;;;;;;8.90;4.15;;;;;;;20.61;56.71;100845.19;5592326;31;33630;-57
2023/06/05 06:18:33;;;;;;;5.78;3.90;;;;;;;20.59;54.96;100842.78;5594920;31;33754;-56
2023/06/05 06:21:36;;;;;;;9.55;4.57;;;;;;;20.65;63.97;100846.87;5586269;31;33680;-56
2023/06/05 06:24:42;;;;;;;9.85;3.97;;;;;;;20.75;60.23;100842.16;5589137;31;33560;-57
2023/06/05 06:27:53;;;;;;;8.40;4.43;;;;;;;20.74;55.57;100843.28;5587864;31;34449;-58
2023/06/05 06:30:56;;;;;;;9.35;4.80;;;;;;;20.74;57.80;100835.12;5597817;31;33614;-57
2023/06/05 06:33:59;;;;;;;8.68;4.37;;;;;;;20.79;58.66;100837.59;5577452;31;33325;-57
2023/06/05 06:37:03;;;;;;;15.98;4.05;;;;;;;20.80;56.39;100842.72;5581472;31;33674;-56
2023/06/05 06:40:09;;;;;;;10.55;4.30;;;;;;;20.78;60.09;100836.81;5588341;31;34277;-57
2023/06/05 06:43:12;;;;;;;7.25;4.40;;;;;;;20.81;57.56;100836.13;5587998;31;34205;-56
2023/06/05 06:46:14;;;;;;;7.00;4.53;;;;;;;20.89;56.25;100837.16;5588189;31;33800;-56
2023/06/05 06:49:17;;;;;;;9.98;4.22;;;;;;;20.89;57.37;100834.44;5585013;31;34401;-57
2023/06/05 06:52:20;;;;;;;9.43;4.80;;;;;;;21.01;61.80;100839.91;5570064;31;33604;-56
2023/06/05 06:55:26;;;;;;;11.18;4.60;;;;;;;20.93;55.68;100840.81;5582359;31;34352;-56
2023/06/05 06:58:29;;;;;;;9.02;5.20;;;;;;;20.95;58.44;100835.03;5581261;31;33274;-57
2023/06/05 07:01:32;;;;;;;10.50;4.07;;;;;;;20.94;57.85;100833.44;5568773;32;34228;-56
2023/06/05 07:04:35;;;;;;;13.10;4.57;;;;;;;20.96;56.51;100825.69;5576019;31;34225;-57
2023/06/05 07:07:37;;;;;;;10.40;5.03;;;;;;;20.98;57.98;100831.62;5571086;31;33120;-56
2023/06/05 07:10:40;;;;;;;9.45;4.93;;;;;;;20.90;58.29;100832.53;5575084;31;33710;-56
2023/06/05 07:13:43;;;;;;;7.15;4.50;;;;;;;20.81;58.92;100841.59;5573302;31;33679;-56
2023/06/05 07:16:45;;;;;;;13.23;4.72;;;;;;;20.79;61.96;100838.41;5587187;31;34274;-56
2023/06/05 07:19:49;;;;;;;8.48;4.68;;;;;;;20.86;61.94;100838.66;5583550;31;34264;-57
2023/06/05 07:22:51;;;;;;;14.15;5.32;;;;;;;20.85;64.38;100839.78;5586825;31;33584;-56
2023/06/05 07:25:53;;;;;;;7.65;4.53;;;;;;;20.83;60.33;100841.25;5582709;31;34323;-56
2023/06/05 07:28:56;;;;;;;9.85;4.82;;;;;;;20.91;61.08;100839.56;5576258;31;34025;-57
2023/06/05 07:31:59;;;;;;;14.30;4.18;;;;;;;20.94;60.77;100844.34;5580888;31;32088;-57
2023/06/05 07:35:02;;;;;;;11.93;4.40;;;;;;;20.90;64.52;100849.69;5567560;32;33728;-56
2023/06/05 07:38:04;;;;;;;9.88;4.40;;;;;;;20.87;61.24;100848.41;5568670;32;33614;-56
2023/06/05 07:41:10;;;;;;;14.23;4.85;;;;;;;20.81;65.72;100855.22;5605237;31;33680;-57
2023/06/05 07:44:16;;;;;;;10.32;4.60;;;;;;;20.86;62.69;100846.84;5576574;31;33460;-56
2023/06/05 07:47:18;;;;;;;9.65;4.60;;;;;;;20.85;61.56;100847.16;5569450;31;33541;-56
2023/06/05 07:50:21;;;;;;;15.20;5.40;;;;;;;20.83;61.18;100846.72;5587944;31;33623;-56
2023/06/05 07:53:23;;;;;;;8.77;4.60;;;;;;;20.87;61.76;100844.91;5588188;31;33632;-57
2023/06/05 07:56:25;;;;;;;8.95;4.85;;;;;;;20.90;61.64;100846.94;5584056;31;33594;-56
2023/06/05 07:59:29;;;;;;;10.20;4.50;;;;;;;20.94;59.97;100842.41;5588094;31;32611;-56
2023/06/05 08:02:32;;;;;;;14.55;5.65;;;;;;;20.96;58.95;100851.06;5579698;31;33722;-56
2023/06/05 08:05:36;;;;;;;15.98;5.18;;;;;;;21.05;61.35;100843.53;5585925;31;34272;-56
2023/06/05 08:08:39;;;;;;;14.85;4.20;;;;;;;21.14;61.83;100837.19;5586112;31;33695;-57
2023/06/05 08:11:41;;;;;;;13.55;4.75;;;;;;;21.19;56.20;100839.69;5573092;31;33685;-56
2023/06/05 08:14:44;;;;;;;18.02;4.60;;;;;;;21.18;57.58;100843.56;5592326;31;33746;-56
2023/06/05 08:17:46;;;;;;;22.40;4.75;;;;;;;21.23;56.14;100846.87;5587640;31;34308;-57
2023/06/05 08:20:50;;;;;;;6.53;3.55;;;;;;;21.26;55.76;100845.41;5602556;31;33630;-56
2023/06/05 08:23:52;;;;;;;9.00;3.60;;;;;;;21.34;58.47;100845.28;5590000;31;33578;-56
2023/06/05 08:26:54;;;;;;;16.17;3.95;;;;;;;21.42;54.54;100842.78;5591768;31;33659;-57
2023/06/05 08:29:57;;;;;;;43.80;5.75;;;;;;;21.39;56.04;100846.19;5586620;31;33420;-56
2023/06/05 08:33:00;;;;;;;13.70;4.18;;;;;;;21.48;53.90;100853.13;5585130;31;33320;-56
2023/06/05 08:36:04;;;;;;;22.15;4.50;;;;;;;21.48;55.42;100849.59;5586060;31;34387;-56
2023/06/05 08:39:06;;;;;;;14.90;4.80;;;;;;;21.46;57.40;100844.50;5586295;31;33701;-56
2023/06/05 08:42:10;;;;;;;11.93;4.35;;;;;;;21.51;62.81;100848.91;5586869;31;34045;-56
2023/06/05 08:45:13;;;;;;;10.60;4.20;;;;;;;21.57;54.93;100847.56;5585383;31;34298;-57
2023/06/05 08:48:20;;;;;;;10.15;3.85;;;;;;;21.62;54.87;100851.97;5585420;31;33632;-56
2023/06/05 08:51:22;;;;;;;10.48;3.70;;;;;;;21.69;62.52;100850.28;5585844;31;33751;-56
2023/06/05 08:54:25;;;;;;;14.63;3.80;;;;;;;21.72;61.89;100854.22;5584677;31;33574;-57
2023/06/05 08:57:28;;;;;;;9.38;4.00;;;;;;;21.76;57.30;100847.75;5588976;31;34431;-57
2023/06/05 09:00:31;;;;;;;11.65;4.28;;;;;;;21.81;53.36;100843.97;5569364;31;33725;-56
2023/06/05 09:03:33;;;;;;;7.12;4.05;;;;;;;21.80;52.05;100848.66;5591740;31;33638;-57
2023/06/05 09:06:36;;;;;;;6.90;3.70;;;;;;;21.81;53.16;100846.69;5588958;31;32417;-57
2023/06/05 09:09:38;;;;;;;10.30;3.83;;;;;;;21.88;53.24;100837.94;5588285;31;34293;-56
2023/06/05 09:12:53;;;;;;;12.77;4.07;;;;;;;22.03;55.69;100843.47;5587932;31;34365;-56
2023/06/05 09:15:55;;;;;;;13.43;5.00;;;;;;;22.07;51.10;100840.03;5588437;31;33631;-56
2023/06/05 09:19:02;;;;;;;12.18;4.30;;;;;;;22.18;52.64;100830.25;5589870;31;33758;-57
2023/06/05 09:22:07;;;;;;;11.52;3.97;;;;;;;22.21;50.94;100829.53;5587051;31;33374;-56
2023/06/05 09:25:09;;;;;;;19.55;4.43;;;;;;;22.38;50.11;100828.44;5573062;31;33257;-57
2023/06/05 09:28:12;;;;;;;7.85;3.80;;;;;;;22.41;52.66;100828.53;5571595;31;33736;-57
2023/06/05 09:31:14;;;;;;;9.15;3.60;;;;;;;22.53;54.04;100827.69;5598416;31;33727;-57
2023/06/05 09:34:30;;;;;;;12.32;4.32;;;;;;;22.51;53.57;100833.50;5584685;31;34070;-56
2023/06/05 09:37:37;;;;;;;7.03;4.05;;;;;;;22.53;50.85;100827.69;5573181;31;33502;-56
2023/06/05 09:40:40;;;;;;;11.77;3.80;;;;;;;22.54;49.07;100834.72;5579582;31;33790;-56
2023/06/05 09:43:43;;;;;;;7.47;4.15;;;;;;;22.60;52.02;100830.59;5587486;31;33587;-57
2023/06/05 09:46:59;;;;;;;9.07;3.78;;;;;;;22.70;49.53;100840.22;5585465;31;34425;-57
2023/06/05 09:50:03;;;;;;;7.85;4.50;;;;;;;22.67;49.98;100840.94;5582799;31;34064;-57
2023/06/05 09:53:08;;;;;;;15.23;4.50;;;;;;;22.62;49.68;100833.00;5585885;31;33876;-56
2023/06/05 09:56:15;;;;;;;11.77;3.95;;;;;;;22.68;49.92;100823.37;5587404;31;33721;-57
2023/06/05 09:59:21;;;;;;;9.10;3.72;;;;;;;22.75;50.64;100827.09;5588074;31;33809;-56
2023/06/05 10:02:35;;;;;;;10.00;4.18;;;;;;;22.88;48.95;100827.81;5588301;31;33611;-56
2023/06/05 10:05:39;;;;;;;11.77;3.65;;;;;;;22.90;47.66;100821.97;5586902;31;33697;-57
2023/06/05 10:08:43;;;;;;;11.07;4.00;;;;;;;23.11;47.90;100808.06;5587494;31;33903;-57
2023/06/05 10:11:50;;;;;;;8.10;3.83;;;;;;;23.31;47.51;100809.72;5587953;31;33489;-57
2023/06/05 10:14:57;;;;;;;6.43;3.72;;;;;;;23.34;47.73;100800.78;5590110;31;34306;-56
2023/06/05 10:18:00;;;;;;;7.65;4.00;;;;;;;23.41;45.77;100811.91;5568231;32;34330;-56
2023/06/05 10:21:04;;;;;;;6.30;3.67;;;;;;;23.57;45.67;100798.16;5568433;32;34442;-56
2023/06/05 10:24:11;;;;;;;7.20;3.25;;;;;;;23.56;43.52;100804.78;5580584;31;33708;-56
2023/06/05 10:27:33;;;;;;;6.18;3.40;;;;;;;23.62;44.40;100791.62;5587732;31;34355;-57
2023/06/05 10:30:47;;;;;;;8.05;3.12;;;;;;;23.80;42.87;100790.06;5592576;31;34125;-57
2023/06/05 10:34:12;;;;;;;8.18;3.53;;;;;;;23.83;42.11;100778.41;5574764;31;33704;-56
2023/06/05 10:37:45;;;;;;;6.32;3.17;;;;;;;23.97;40.80;100777.91;5601072;31;33762;-57
2023/06/05 10:41:03;;;;;;;6.80;3.35;;;;;;;24.05;40.14;100779.63;5589122;31;33662;-56
2023/06/05 10:44:05;;;;;;;;;;;;;;;24.12;40.27;100784.47;5587003;31;33716;-56
2023/06/05 10:47:32;;;;;;;7.72;3.10;;;;;;;24.12;40.06;100777.03;5585061;31;33541;-57
2023/06/05 10:50:36;;;;;;;5.93;3.22;;;;;;;24.09;40.05;100775.00;5586783;31;33486;-56
2023/06/05 10:53:45;;;;;;;6.53;2.97;;;;;;;24.17;40.78;100767.72;5583098;31;33714;-56
2023/06/05 10:57:09;;;;;;;10.88;3.08;;;;;;;24.25;41.26;100774.12;5583676;31;34960;-57
2023/06/05 11:00:12;;;;;;;7.82;3.40;;;;;;;24.34;41.06;100770.00;5579358;31;33430;-57
2023/06/05 11:03:14;;;;;;;8.35;3.40;;;;;;;24.29;40.46;100769.50;5585682;31;34127;-56
2023/06/05 11:06:17;;;;;;;5.30;3.00;;;;;;;24.15;40.72;100770.03;5586039;31;34334;-57
2023/06/05 11:09:20;;;;;;;6.35;3.67;;;;;;;24.18;42.09;100772.06;5587573;31;34415;-57
2023/06/05 11:12:22;;;;;;;6.53;3.78;;;;;;;24.14;41.50;100763.78;5587259;31;33692;-57
2023/06/05 11:15:28;;;;;;;4.60;3.10;;;;;;;24.18;40.92;100761.09;5587167;31;33792;-57
2023/06/05 11:18:32;;;;;;;10.88;3.85;;;;;;;24.25;40.66;100754.97;5586888;31;34413;-56
2023/06/05 11:22:13;;;;;;;9.32;3.45;;;;;;;24.25;41.52;100755.75;5588153;31;33700;-56
2023/06/05 11:25:21;;;;;;;8.55;3.65;;;;;;;24.31;42.28;100756.25;5589797;31;34367;-56
2023/06/05 11:28:40;;;;;;;9.07;3.58;;;;;;;24.43;42.19;100758.03;5589604;31;33755;-56
2023/06/05 11:31:44;;;;;;;13.07;3.47;;;;;;;24.39;42.11;100746.97;5577023;31;34334;-56
2023/06/05 11:34:47;;;;;;;10.23;3.70;;;;;;;24.44;42.91;100759.63;5589439;31;33630;-56
2023/06/05 11:38:07;;;;;;;8.48;3.67;;;;;;;24.35;42.73;100744.19;5585582;31;33844;-57
2023/06/05 11:41:10;;;;;;;9.90;3.60;;;;;;;24.42;44.08;100742.75;5579949;31;33667;-56
2023/06/05 11:44:13;;;;;;;9.38;3.40;;;;;;;24.46;44.47;100744.38;5575508;31;34466;-57
2023/06/05 11:47:28;;;;;;;8.23;4.00;;;;;;;24.40;44.69;100737.59;5583596;31;34442;-57
2023/06/05 11:50:31;;;;;;;7.15;3.30;;;;;;;24.44;43.42;100737.72;5580501;31;34447;-57
2023/06/05 11:53:34;;;;;;;6.15;3.70;;;;;;;24.37;43.56;100736.41;5581502;31;34310;-57
2023/06/05 11:56:45;;;;;;;5.62;3.10;;;;;;;24.37;43.15;100739.13;5571298;31;34292;-56
2023/06/05 11:59:48;;;;;;;10.30;4.07;;;;;;;24.37;44.00;100728.19;5578567;31;33828;-56
2023/06/05 12:02:50;;;;;;;8.25;3.40;;;;;;;24.36;43.25;100723.03;5577111;31;34249;-57
2023/06/05 12:05:53;;;;;;;7.05;3.70;;;;;;;24.41;44.13;100722.00;5591926;31;33967;-57
2023/06/05 12:09:10;;;;;;;9.40;3.87;;;;;;;24.32;43.76;100719.47;5586590;31;34321;-57
2023/06/05 12:12:13;;;;;;;7.85;3.40;;;;;;;24.29;43.90;100711.97;5587607;31;34459;-57
2023/06/05 12:15:15;;;;;;;9.25;3.83;;;;;;;24.23;43.28;100703.25;5581454;31;34246;-57
2023/06/05 12:18:18;;;;;;;10.18;3.80;;;;;;;24.27;43.70;100700.56;5576335;31;33750;-57
2023/06/05 12:21:25;;;;;;;6.07;3.65;;;;;;;24.39;43.47;100719.59;5572792;31;33671;-58
2023/06/05 12:24:28;;;;;;;6.35;3.50;;;;;;;24.35;44.34;100700.34;5572675;31;33259;-57
2023/06/05 12:27:32;;;;;;;8.40;3.67;;;;;;;24.34;44.46;100697.97;5568638;31;33711;-57
2023/06/05 12:30:41;;;;;;;10.20;3.37;;;;;;;24.35;44.45;100697.59;5576898;31;33086;-58
2023/06/05 12:33:49;;;;;;;6.55;3.47;;;;;;;24.37;45.20;100684.34;5570956;31;33739;-57
2023/06/05 12:36:51;;;;;;;6.30;3.30;;;;;;;24.44;44.63;100686.44;5575277;31;33654;-57
2023/06/05 12:39:54;;;;;;;6.78;3.70;;;;;;;24.57;44.65;100684.28;5575184;31;33755;-57
2023/06/05 12:42:56;;;;;;;7.97;3.62;;;;;;;24.56;44.13;100683.47;5577263;31;33639;-57
2023/06/05 12:45:59;;;;;;;7.30;3.78;;;;;;;24.55;42.45;100684.66;5581602;31;34815;-58
2023/06/05 12:49:05;;;;;;;10.50;3.50;;;;;;;24.55;42.54;100681.13;5569639;31;33668;-57
2023/06/05 12:52:11;;;;;;;7.43;3.47;;;;;;;24.57;42.96;100673.34;5579545;31;33957;-57
2023/06/05 12:55:13;;;;;;;11.00;3.45;;;;;;;24.59;40.96;100671.00;5585091;31;33096;-58
2023/06/05 12:58:16;;;;;;;9.48;3.15;;;;;;;24.63;41.82;100671.03;5588654;31;33702;-57
2023/06/05 13:01:18;;;;;;;9.05;3.58;;;;;;;24.67;42.35;100671.88;5589067;31;33608;-57
2023/06/05 13:04:20;;;;;;;7.55;3.78;;;;;;;24.70;42.01;100663.75;5584149;31;34227;-57
2023/06/05 13:07:23;;;;;;;8.38;3.67;;;;;;;24.66;41.97;100657.37;5576744;31;33619;-58
2023/06/05 13:10:25;;;;;;;10.10;3.22;;;;;;;24.67;42.25;100663.66;5579847;31;33734;-57
2023/06/05 13:13:30;;;;;;;5.82;3.30;;;;;;;24.65;40.84;100655.03;5583350;31;33655;-57
2023/06/05 13:16:32;;;;;;;6.47;3.50;;;;;;;24.69;40.53;100648.44;5586111;31;34383;-57
2023/06/05 13:19:35;;;;;;;10.88;3.30;;;;;;;24.72;40.13;100653.19;5587537;31;33720;-57
2023/06/05 13:22:37;;;;;;;6.53;3.37;;;;;;;24.68;41.26;100652.34;5588653;31;33669;-57
2023/06/05 13:25:40;;;;;;;10.23;3.62;;;;;;;24.66;39.50;100649.16;5582544;31;33619;-57
2023/06/05 13:28:44;;;;;;;10.20;3.42;;;;;;;24.74;40.58;100650.09;5573106;31;33209;-57
2023/06/05 13:31:47;;;;;;;11.15;3.60;;;;;;;24.73;41.74;100649.25;5576085;31;33133;-57
2023/06/05 13:34:50;;;;;;;11.73;3.40;;;;;;;24.73;39.23;100648.47;5577603;31;33739;-57
2023/06/05 13:37:53;;;;;;;12.60;3.72;;;;;;;24.70;40.07;100649.22;5587767;31;33731;-57
2023/06/05 13:40:55;;;;;;;11.32;3.83;;;;;;;24.68;39.82;100646.84;5588102;31;33988;-58
2023/06/05 13:43:58;;;;;;;14.23;3.92;;;;;;;24.74;39.76;100642.66;5588049;31;33652;-57
2023/06/05 13:47:02;;;;;;;21.10;3.97;;;;;;;24.68;39.61;100637.84;5580874;31;33663;-57
2023/06/05 13:50:06;;;;;;;12.02;3.50;;;;;;;24.69;42.70;100647.66;5587623;31;34319;-57
2023/06/05 13:53:09;;;;;;;11.12;3.37;;;;;;;24.74;39.87;100641.84;5587842;31;33431;-57
2023/06/05 13:56:11;;;;;;;9.35;4.18;;;;;;;24.75;38.82;100636.00;5588471;31;34392;-57
2023/06/05 13:59:14;;;;;;;24.48;4.50;;;;;;;24.74;40.74;100639.91;5587147;31;33720;-57
2023/06/05 14:02:16;;;;;;;18.08;3.85;;;;;;;24.76;40.64;100634.03;5587133;31;33125;-57
2023/06/05 14:05:19;;;;;;;15.18;4.32;;;;;;;24.79;40.09;100638.78;5589531;31;33851;-57
2023/06/05 14:08:21;;;;;;;9.43;3.60;;;;;;;24.69;43.05;100631.97;5571813;31;34376;-57
2023/06/05 14:11:23;;;;;;;9.93;3.62;;;;;;;24.77;40.04;100630.16;5578925;31;33816;-57
2023/06/05 14:14:26;;;;;;;13.77;4.07;;;;;;;24.68;41.31;100626.87;5586477;31;33480;-58
2023/06/05 14:17:28;;;;;;;15.63;3.83;;;;;;;24.67;41.52;100630.75;5586235;31;33581;-57
2023/06/05 14:20:31;;;;;;;14.68;4.07;;;;;;;24.72;39.81;100622.22;5586176;31;33665;-57
2023/06/05 14:23:34;;;;;;;13.40;3.83;;;;;;;24.71;40.28;100624.19;5587056;31;33244;-57
2023/06/05 14:26:36;;;;;;;15.07;3.83;;;;;;;24.68;41.09;100621.41;5587794;31;33370;-58
2023/06/05 14:29:39;;;;;;;11.88;3.62;;;;;;;24.66;41.51;100613.53;5588086;31;34359;-56
2023/06/05 14:32:41;;;;;;;4.25;3.10;;;;;;;24.71;40.23;100623.41;5586815;31;34575;-57
2023/06/05 14:35:44;;;;;;;15.85;3.75;;;;;;;24.69;39.38;100620.22;5587368;31;33426;-57
2023/06/05 14:38:46;;;;;;;8.55;3.37;;;;;;;24.68;40.47;100618.66;5587033;31;34091;-57
2023/06/05 14:41:49;;;;;;;9.35;3.33;;;;;;;24.70;39.01;100608.09;5587695;31;34429;-57
2023/06/05 14:44:51;;;;;;;9.40;3.60;;;;;;;24.68;39.70;100600.25;5587826;31;34336;-57
2023/06/05 14:47:53;;;;;;;16.73;3.92;;;;;;;24.73;38.75;100610.09;5587785;31;34401;-57
2023/06/05 14:50:56;;;;;;;7.22;3.10;;;;;;;24.69;40.24;100603.78;5587912;31;34423;-58
2023/06/05 14:53:58;;;;;;;6.47;3.28;;;;;;;24.68;39.94;100605.75;5586411;31;33699;-57
2023/06/05 14:57:01;;;;;;;9.07;3.30;;;;;;;24.66;39.76;100605.31;5587844;31;33966;-58
2023/06/05 15:00:04;;;;;;;9.85;3.70;;;;;;;24.67;38.76;100600.59;5587523;31;34307;-57
2023/06/05 15:03:08;;;;;;;12.35;4.05;;;;;;;24.65;40.81;100608.44;5588120;31;34331;-57
2023/06/05 15:06:11;;;;;;;6.70;3.25;;;;;;;24.61;40.79;100603.69;5586488;31;34187;-58
2023/06/05 15:09:26;;;;;;;7.35;3.40;;;;;;;24.63;38.70;100594.28;5588104;31;33761;-58
2023/06/05 15:12:28;;;;;;;8.30;3.62;;;;;;;24.68;37.65;100597.53;5587370;31;33603;-58
2023/06/05 15:15:30;;;;;;;6.68;3.35;;;;;;;24.60;37.88;100596.63;5587966;31;33643;-57
2023/06/05 15:18:33;;;;;;;8.82;3.42;;;;;;;24.55;40.34;100591.47;5588318;31;33249;-57
2023/06/05 15:21:36;;;;;;;6.00;3.65;;;;;;;24.52;39.23;100589.47;5588857;31;33794;-57
2023/06/05 15:24:39;;;;;;;7.43;3.37;;;;;;;24.47;39.69;100586.22;5588756;31;33774;-58
2023/06/05 15:27:42;;;;;;;8.73;3.03;;;;;;;24.43;39.03;100580.72;5588566;31;33727;-59
